Time;durP1;ratioP1;P1;durP2;ratioP2;P2;SDS_P1;SDS_P2;PMS_P1;PMS_P2;Temp;Humidity;BMP_temperature;BMP_pressure;BME280_temperature;BME280_humidity;BME280_pressure;Samples;Min_cycle;Max_cycle;Signal;HPM_P1;HPM_P2
2023/12/02 00:03:40;;;;;;;;;;;-0.10;99.90;;;;;;8437894;28;20367;-72
2023/12/02 00:07:42;;;;;;;;;;;-0.10;99.90;;;;;;8434927;28;20288;-73
2023/12/02 00:11:48;;;;;;;;;;;-0.10;99.90;;;;;;8440529;28;19988;-72
2023/12/02 00:15:50;;;;;;;;;;;-0.10;99.90;;;;;;8438542;28;19925;-72
2023/12/02 00:19:51;;;;;;;;;;;-0.10;99.90;;;;;;8444811;28;20444;-72
2023/12/02 00:23:53;;;;;;;;;;;-0.20;99.90;;;;;;8429179;28;19931;-72
2023/12/02 00:27:55;;;;;;;;;;;-0.20;99.90;;;;;;8436466;28;20291;-72
2023/12/02 00:31:56;;;;;;;;;;;-0.20;99.90;;;;;;8430218;28;19932;-72
2023/12/02 00:35:58;;;;;;;;;;;-0.20;99.90;;;;;;8445856;28;19938;-72
2023/12/02 00:40:00;;;;;;;;;;;-0.10;99.90;;;;;;8445130;28;20371;-72
2023/12/02 00:44:01;;;;;;;;;;;-0.20;99.90;;;;;;8426936;28;19924;-72
2023/12/02 00:48:03;;;;;;;;;;;-0.10;99.90;;;;;;8428110;28;20440;-72
2023/12/02 00:52:05;;;;;;;;;;;-0.20;99.90;;;;;;8444726;28;20375;-72
2023/12/02 00:56:07;;;;;;;;;;;-0.20;99.90;;;;;;8433758;28;19977;-73
2023/12/02 01:00:09;;;;;;;;;;;-0.20;99.90;;;;;;8440070;28;19954;-72
2023/12/02 01:04:11;;;;;;;;;;;-0.20;99.90;;;;;;8433938;28;19927;-72
2023/12/02 01:08:12;;;;;;;;;;;-0.20;99.90;;;;;;8431109;28;20376;-71
2023/12/02 01:12:14;;;;;;;;;;;-0.10;99.90;;;;;;8421976;28;20304;-72
2023/12/02 01:16:16;;;;;;;;;;;-0.20;99.90;;;;;;8427856;28;20391;-72
2023/12/02 01:20:17;;;;;;;;;;;-0.20;99.90;;;;;;8436516;28;19934;-71
2023/12/02 01:24:19;;;;;;;;;;;-0.20;99.90;;;;;;8437502;28;19947;-72
2023/12/02 01:28:21;;;;;;;;;;;-0.20;99.90;;;;;;8474119;27;20456;-72
2023/12/02 01:32:22;;;;;;;;;;;-0.20;99.90;;;;;;8443273;28;19947;-72
2023/12/02 01:36:24;;;;;;;;;;;-0.20;99.90;;;;;;8434185;28;20363;-72
2023/12/02 01:40:26;;;;;;;;;;;-0.20;99.90;;;;;;8436207;28;20364;-72
2023/12/02 01:44:28;;;;;;;;;;;-0.20;99.90;;;;;;8426705;28;20326;-72
2023/12/02 01:48:35;;;;;;;;;;;-0.20;99.90;;;;;;8437050;28;20036;-73
2023/12/02 01:52:37;;;;;;;;;;;-0.20;99.90;;;;;;8432651;28;20382;-73
2023/12/02 01:56:39;;;;;;;;;;;-0.30;99.90;;;;;;8435396;28;19924;-72
2023/12/02 02:00:41;;;;;;;;;;;-0.30;99.90;;;;;;8435533;28;19924;-72
2023/12/02 02:04:42;;;;;;;;;;;-0.30;99.90;;;;;;8437669;28;19932;-72
2023/12/02 02:08:44;;;;;;;;;;;-0.30;99.90;;;;;;8438120;28;19927;-72
2023/12/02 02:12:46;;;;;;;;;;;-0.40;99.90;;;;;;8432376;28;19950;-73
2023/12/02 02:16:47;;;;;;;;;;;-0.50;99.90;;;;;;8419141;28;19932;-72
2023/12/02 02:20:50;;;;;;;;;;;-0.50;99.90;;;;;;8431687;28;20291;-72
2023/12/02 02:24:52;;;;;;;;;;;-0.50;99.90;;;;;;8434634;28;19931;-72
2023/12/02 02:28:54;;;;;;;;;;;-0.60;99.90;;;;;;8431366;28;19999;-72
2023/12/02 02:32:55;;;;;;;;;;;-0.60;99.90;;;;;;8430218;28;20318;-73
2023/12/02 02:36:57;;;;;;;;;;;-0.70;99.90;;;;;;8434819;28;20302;-72
2023/12/02 02:40:59;;;;;;;;;;;-0.80;99.90;;;;;;8435484;28;19924;-72
2023/12/02 02:45:01;;;;;;;;;;;-0.90;99.90;;;;;;8431811;28;20284;-72
2023/12/02 02:49:02;;;;;;;;;;;-1.00;99.90;;;;;;8421981;28;19925;-73
2023/12/02 02:53:04;;;;;;;;;;;-1.00;99.90;;;;;;8426477;28;19935;-73
2023/12/02 02:57:06;;;;;;;;;;;-1.10;99.90;;;;;;8434457;28;19939;-73
2023/12/02 03:01:08;;;;;;;;;;;-1.20;99.90;;;;;;8424265;28;19932;-72
2023/12/02 03:05:09;;;;;;;;;;;-1.20;99.90;;;;;;8431899;28;19931;-72
2023/12/02 03:09:11;;;;;;;;;;;-1.30;99.90;;;;;;8430368;28;19977;-72
2023/12/02 03:13:13;;;;;;;;;;;-1.30;99.90;;;;;;8439120;28;19923;-73
2023/12/02 03:17:15;;;;;;;;;;;-1.30;99.90;;;;;;8411865;28;19932;-72
2023/12/02 03:21:16;;;;;;;;;;;-1.30;99.90;;;;;;8431675;28;19930;-73
2023/12/02 03:25:18;;;;;;;;;;;-1.30;99.90;;;;;;8433035;28;19924;-72
2023/12/02 03:29:19;;;;;;;;;;;-1.20;99.90;;;;;;8431467;28;19924;-72
2023/12/02 03:33:21;;;;;;;;;;;-1.20;99.90;;;;;;8439100;28;19946;-72
2023/12/02 03:37:23;;;;;;;;;;;-1.10;99.90;;;;;;8439958;28;19931;-72
2023/12/02 03:41:24;;;;;;;;;;;-1.10;99.90;;;;;;8433749;28;19981;-72
2023/12/02 03:45:26;;;;;;;;;;;-1.10;99.90;;;;;;8445125;28;19927;-72
2023/12/02 03:49:28;;;;;;;;;;;-1.00;99.90;;;;;;8448829;28;20271;-73
2023/12/02 03:53:34;;;;;;;;;;;-1.00;99.90;;;;;;8438452;28;19979;-72
2023/12/02 03:57:36;;;;;;;;;;;-1.00;99.90;;;;;;8437088;28;20038;-72
2023/12/02 04:01:37;;;;;;;;;;;-1.00;99.90;;;;;;8437492;28;19938;-72
2023/12/02 04:05:39;;;;;;;;;;;-1.00;99.90;;;;;;8442689;28;19924;-72
2023/12/02 04:09:41;;;;;;;;;;;-1.00;99.90;;;;;;8446666;28;19924;-72
2023/12/02 04:13:43;;;;;;;;;;;-1.00;99.90;;;;;;8436732;28;19969;-73
2023/12/02 04:17:45;;;;;;;;;;;-0.90;99.90;;;;;;8435574;28;19924;-72
2023/12/02 04:21:47;;;;;;;;;;;-0.90;99.90;;;;;;8436905;28;20082;-72
2023/12/02 04:25:50;;;;;;;;;;;-0.80;99.90;;;;;;8432848;28;20049;-72
2023/12/02 04:29:52;;;;;;;;;;;-0.80;99.90;;;;;;8434079;28;19950;-73
2023/12/02 04:33:53;;;;;;;;;;;-0.80;99.90;;;;;;8434735;28;20308;-73
2023/12/02 04:37:55;;;;;;;;;;;-0.80;99.90;;;;;;8442400;28;19931;-73
2023/12/02 04:41:57;;;;;;;;;;;-0.80;99.90;;;;;;8449825;28;19928;-73
2023/12/02 04:45:59;;;;;;;;;;;-0.80;99.90;;;;;;8434950;28;19924;-72
2023/12/02 04:50:01;;;;;;;;;;;-0.70;99.90;;;;;;8440805;28;19923;-73
2023/12/02 04:54:03;;;;;;;;;;;-0.70;99.90;;;;;;8437373;28;19931;-72
2023/12/02 04:58:05;;;;;;;;;;;-0.70;99.90;;;;;;8443128;28;19928;-73
2023/12/02 05:02:08;;;;;;;;;;;-0.70;99.90;;;;;;8447612;28;19939;-72
2023/12/02 05:06:15;;;;;;;;;;;-0.70;99.90;;;;;;8440046;28;19928;-72
2023/12/02 05:10:17;;;;;;;;;;;-0.70;99.90;;;;;;8440924;28;20723;-72
2023/12/02 05:24:32;;;;;;;;;;;-0.60;99.90;;;;;;8399138;28;19933;-72
2023/12/02 05:28:34;;;;;;;;;;;-0.60;99.90;;;;;;8434483;28;19989;-72
2023/12/02 05:32:36;;;;;;;;;;;-0.60;99.90;;;;;;8431937;28;19924;-72
2023/12/02 05:36:37;;;;;;;;;;;-0.60;99.90;;;;;;8425848;28;19924;-73
2023/12/02 05:40:39;;;;;;;;;;;-0.60;99.90;;;;;;8438774;28;19955;-72
2023/12/02 05:59:51;;;;;;;;;;;-0.60;99.90;;;;;;8431794;28;19915;-73
2023/12/02 06:03:52;;;;;;;;;;;-0.70;99.90;;;;;;8431786;28;19924;-72
2023/12/02 06:07:54;;;;;;;;;;;-0.80;99.90;;;;;;8420678;28;19924;-72
2023/12/02 06:11:56;;;;;;;;;;;-0.80;99.90;;;;;;8434904;28;20369;-72
2023/12/02 06:15:58;;;;;;;;;;;-0.90;99.90;;;;;;8418923;28;20329;-72
2023/12/02 06:19:59;;;;;;;;;;;-1.00;99.90;;;;;;8443472;28;19963;-72
2023/12/02 06:24:03;;;;;;;;;;;-1.10;99.90;;;;;;8424131;28;20377;-71
2023/12/02 06:28:05;;;;;;;;;;;-1.20;99.90;;;;;;8459055;27;19931;-72
2023/12/02 06:32:06;;;;;;;;;;;-1.20;99.90;;;;;;8444899;28;19977;-72
2023/12/02 06:36:08;;;;;;;;;;;-1.30;99.90;;;;;;8436428;28;19924;-72
2023/12/02 06:40:10;;;;;;;;;;;-1.30;99.90;;;;;;8442297;28;19977;-72
2023/12/02 06:44:12;;;;;;;;;;;-1.30;99.90;;;;;;8428801;28;19985;-72
2023/12/02 06:48:14;;;;;;;;;;;-1.40;99.90;;;;;;8422579;28;19982;-72
2023/12/02 06:52:15;;;;;;;;;;;-1.50;99.90;;;;;;8413671;28;20025;-73
2023/12/02 06:56:21;;;;;;;;;;;-1.60;99.90;;;;;;8410307;28;19928;-73
2023/12/02 07:00:23;;;;;;;;;;;-1.70;99.90;;;;;;8422481;28;20033;-72
2023/12/02 07:04:24;;;;;;;;;;;-1.70;99.90;;;;;;8430077;28;20013;-72
2023/12/02 07:08:26;;;;;;;;;;;-1.70;99.90;;;;;;8424693;28;19940;-72
2023/12/02 07:12:28;;;;;;;;;;;-1.70;99.90;;;;;;8425488;28;19939;-73
2023/12/02 07:16:29;;;;;;;;;;;-1.70;99.90;;;;;;8413022;28;20019;-72
2023/12/02 07:20:31;;;;;;;;;;;-1.70;99.90;;;;;;8428247;28;20010;-72
2023/12/02 07:24:32;;;;;;;;;;;-1.80;99.90;;;;;;8422547;28;20299;-73
2023/12/02 07:28:34;;;;;;;;;;;-1.70;99.90;;;;;;8415229;28;20306;-72
2023/12/02 07:32:37;;;;;;;;;;;-1.70;99.90;;;;;;8443263;28;19928;-72
2023/12/02 07:36:38;;;;;;;;;;;-1.60;99.90;;;;;;8430648;28;20371;-73
2023/12/02 07:40:40;;;;;;;;;;;-1.60;99.90;;;;;;8426578;28;19984;-72
2023/12/02 07:44:42;;;;;;;;;;;-1.60;99.90;;;;;;8424231;28;19924;-73
2023/12/02 07:48:43;;;;;;;;;;;-1.60;99.90;;;;;;8429640;28;19946;-72
2023/12/02 07:52:45;;;;;;;;;;;-1.50;99.90;;;;;;8431623;28;19924;-73
2023/12/02 07:56:47;;;;;;;;;;;-1.60;99.90;;;;;;8431968;28;19923;-72
2023/12/02 08:00:49;;;;;;;;;;;-1.60;99.90;;;;;;8432030;28;19924;-72
2023/12/02 08:04:50;;;;;;;;;;;-1.70;99.90;;;;;;8431881;28;19928;-72
2023/12/02 08:08:55;;;;;;;;;;;-1.70;99.90;;;;;;8415091;28;21159;-73
2023/12/02 08:12:57;;;;;;;;;;;-1.70;99.90;;;;;;8422909;28;20367;-72
2023/12/02 08:16:58;;;;;;;;;;;-1.70;99.90;;;;;;8428801;28;19981;-72
2023/12/02 08:21:00;;;;;;;;;;;-1.70;99.90;;;;;;8428460;28;19927;-73
2023/12/02 08:25:01;;;;;;;;;;;-1.70;99.90;;;;;;8431132;28;19924;-72
2023/12/02 08:29:03;;;;;;;;;;;-1.60;99.90;;;;;;8434583;28;19928;-72
2023/12/02 08:33:05;;;;;;;;;;;-1.50;99.90;;;;;;8448129;28;19974;-72
2023/12/02 08:37:07;;;;;;;;;;;-1.40;99.90;;;;;;8439545;28;19932;-72
2023/12/02 08:41:10;;;;;;;;;;;-1.30;99.90;;;;;;8434558;28;19924;-72
2023/12/02 08:45:11;;;;;;;;;;;-1.30;99.90;;;;;;8445271;28;19931;-72
2023/12/02 08:49:13;;;;;;;;;;;-1.20;99.90;;;;;;8435984;28;19932;-72
2023/12/02 08:53:15;;;;;;;;;;;-1.10;99.90;;;;;;8428598;28;20390;-72
2023/12/02 08:57:17;;;;;;;;;;;-1.00;99.90;;;;;;8435539;28;20345;-73
2023/12/02 09:06:22;;;;;;;;;;;-0.70;99.90;;;;;;8442526;28;19991;-73
2023/12/02 09:10:24;;;;;;;;;;;-0.50;99.90;;;;;;8432259;28;19940;-73
2023/12/02 09:14:26;;;;;;;;;;;-0.50;99.90;;;;;;8423137;28;19924;-71
2023/12/02 09:18:34;;;;;;;;;;;-0.30;99.90;;;;;;8424320;28;19925;-72
2023/12/02 09:22:46;;;;;;;;;;;-0.30;99.90;;;;;;8414899;28;20306;-72
2023/12/02 09:26:48;;;;;;;;;;;-0.20;99.90;;;;;;8428332;28;20029;-72
2023/12/02 09:30:51;;;;;;;;;;;-0.20;99.90;;;;;;8441607;28;19932;-72
2023/12/02 09:35:07;;;;;;;;;;;-0.10;99.90;;;;;;8421778;28;19929;-72
2023/12/02 09:39:09;;;;;;;;;;;-0.10;99.90;;;;;;8419253;28;20290;-72
2023/12/02 09:43:31;;;;;;;;;;;0.10;99.90;;;;;;8432631;28;20019;-72
2023/12/02 09:47:39;;;;;;;;;;;0.20;99.90;;;;;;8432987;28;19928;-71
2023/12/02 09:51:47;;;;;;;;;;;0.30;99.90;;;;;;8441592;28;19933;-71
2023/12/02 09:55:55;;;;;;;;;;;0.50;99.90;;;;;;8431587;28;20240;-72
2023/12/02 09:59:59;;;;;;;;;;;0.70;99.90;;;;;;8447680;28;19936;-72
2023/12/02 10:04:05;;;;;;;;;;;0.80;99.90;;;;;;8412396;28;19982;-73
2023/12/02 10:08:12;;;;;;;;;;;0.80;99.90;;;;;;8421821;28;19932;-72
2023/12/02 10:12:22;;;;;;;;;;;0.80;99.90;;;;;;8433205;28;20275;-71
2023/12/02 10:16:28;;;;;;;;;;;0.70;99.90;;;;;;8420910;28;19926;-72
2023/12/02 10:20:34;;;;;;;;;;;0.60;99.90;;;;;;8440076;28;19924;-71
2023/12/02 10:24:40;;;;;;;;;;;0.60;99.90;;;;;;8424780;28;19977;-73
2023/12/02 10:28:56;;;;;;;;;;;0.70;99.90;;;;;;8421787;28;19997;-72
2023/12/02 10:32:58;;;;;;;;;;;0.70;99.90;;;;;;8420772;28;20376;-72
2023/12/02 10:37:02;;;;;;;;;;;0.70;99.90;;;;;;8426830;28;19928;-71
2023/12/02 10:41:04;;;;;;;;;;;0.70;99.90;;;;;;8437712;28;20476;-72
2023/12/02 10:45:08;;;;;;;;;;;0.60;99.90;;;;;;8433880;28;19924;-72
2023/12/02 10:49:10;;;;;;;;;;;0.60;99.90;;;;;;8419997;28;19947;-72
2023/12/02 10:53:14;;;;;;;;;;;0.70;99.90;;;;;;8434225;28;19963;-72
2023/12/02 10:57:18;;;;;;;;;;;0.70;99.90;;;;;;8415927;28;19929;-73
2023/12/02 11:01:36;;;;;;;;;;;0.70;99.90;;;;;;8428642;28;19924;-71
2023/12/02 11:05:45;;;;;;;;;;;0.70;99.90;;;;;;8427272;28;19932;-73
2023/12/02 11:09:46;;;;;;;;;;;0.80;99.90;;;;;;8420363;28;19924;-72
2023/12/02 11:13:54;;;;;;;;;;;0.80;99.90;;;;;;8416929;28;19924;-71
2023/12/02 11:18:03;;;;;;;;;;;0.90;99.90;;;;;;8410820;28;19924;-72
2023/12/02 11:22:23;;;;;;;;;;;1.00;99.90;;;;;;8417776;28;20290;-71
2023/12/02 11:26:31;;;;;;;;;;;1.10;99.90;;;;;;8422528;28;19924;-72
2023/12/02 11:30:32;;;;;;;;;;;1.20;99.90;;;;;;8424120;28;19950;-72
2023/12/02 11:34:37;;;;;;;;;;;1.40;99.90;;;;;;8416861;28;19933;-72
2023/12/02 11:38:46;;;;;;;;;;;1.80;99.90;;;;;;8416574;28;19931;-72
2023/12/02 11:43:02;;;;;;;;;;;2.10;99.90;;;;;;8420234;28;19924;-72
2023/12/02 11:47:15;;;;;;;;;;;2.50;99.90;;;;;;8417978;28;19924;-72
2023/12/02 11:51:20;;;;;;;;;;;3.20;99.90;;;;;;8453927;27;19970;-72
2023/12/02 11:55:42;;;;;;;;;;;3.70;99.90;;;;;;8417983;28;19931;-72
2023/12/02 11:59:59;;;;;;;;;;;4.20;99.90;;;;;;8420204;28;20347;-72
2023/12/02 12:04:19;;;;;;;;;;;4.80;99.90;;;;;;8413102;28;19924;-72
2023/12/02 12:08:22;;;;;;;;;;;5.30;99.90;;;;;;8429003;28;19932;-72
2023/12/02 12:12:25;;;;;;;;;;;5.60;99.90;;;;;;8421353;28;19990;-72
2023/12/02 12:17:04;;;;;;;;;;;5.90;99.90;;;;;;8409338;28;19924;-72
2023/12/02 12:21:06;;;;;;;;;;;6.10;99.90;;;;;;8431137;27;19986;-72
2023/12/02 12:25:08;;;;;;;;;;;6.20;99.90;;;;;;8414458;28;19973;-72
2023/12/02 12:29:10;;;;;;;;;;;6.40;99.90;;;;;;8420202;28;19928;-72
2023/12/02 12:33:18;;;;;;;;;;;6.50;99.90;;;;;;8423128;28;19924;-72
2023/12/02 12:37:20;;;;;;;;;;;6.40;99.90;;;;;;8424709;28;20490;-72
2023/12/02 12:41:23;;;;;;;;;;;6.00;99.90;;;;;;8433783;28;19931;-72
2023/12/02 12:45:24;;;;;;;;;;;5.40;99.90;;;;;;8445555;28;19997;-72
2023/12/02 12:49:28;;;;;;;;;;;4.90;99.90;;;;;;8421050;28;20448;-73
2023/12/02 12:53:30;;;;;;;;;;;4.40;99.90;;;;;;8418810;28;19928;-72
2023/12/02 12:57:40;;;;;;;;;;;4.10;99.90;;;;;;8426586;28;19924;-72
2023/12/02 13:02:03;;;;;;;;;;;3.80;99.90;;;;;;8421121;28;19924;-72
2023/12/02 13:06:10;;;;;;;;;;;3.60;99.90;;;;;;8422028;28;19924;-72
2023/12/02 13:10:13;;;;;;;;;;;3.50;99.90;;;;;;8422109;28;20249;-72
2023/12/02 13:14:19;;;;;;;;;;;3.40;99.90;;;;;;8424288;28;19954;-72
2023/12/02 13:18:21;;;;;;;;;;;3.40;99.90;;;;;;8425175;28;19935;-72
2023/12/02 13:22:24;;;;;;;;;;;3.30;99.90;;;;;;8402968;28;20267;-72
2023/12/02 13:26:27;;;;;;;;;;;3.30;99.90;;;;;;8407430;28;19943;-72
2023/12/02 13:30:31;;;;;;;;;;;3.30;99.90;;;;;;8409076;28;19924;-72
2023/12/02 13:34:39;;;;;;;;;;;3.30;99.90;;;;;;8409495;28;20272;-72
2023/12/02 13:38:43;;;;;;;;;;;3.40;99.90;;;;;;8410594;28;19924;-71
2023/12/02 13:42:48;;;;;;;;;;;3.40;99.90;;;;;;8411678;28;19924;-72
2023/12/02 13:47:06;;;;;;;;;;;3.40;99.90;;;;;;8402599;28;19960;-71
2023/12/02 13:51:08;;;;;;;;;;;3.40;99.90;;;;;;8403975;28;19928;-72
2023/12/02 13:55:29;;;;;;;;;;;3.40;99.90;;;;;;8411243;28;19981;-71
2023/12/02 13:59:39;;;;;;;;;;;3.30;99.90;;;;;;8404103;28;19935;-72
2023/12/02 14:03:58;;;;;;;;;;;3.30;99.90;;;;;;8405452;28;19993;-71
2023/12/02 14:08:02;;;;;;;;;;;3.30;99.90;;;;;;8407569;28;19931;-72
2023/12/02 14:12:10;;;;;;;;;;;3.40;99.90;;;;;;8405776;28;19928;-71
2023/12/02 14:16:14;;;;;;;;;;;3.50;99.90;;;;;;8401762;28;19964;-72
2023/12/02 14:20:25;;;;;;;;;;;3.70;99.90;;;;;;8417670;28;19932;-72
2023/12/02 14:24:45;;;;;;;;;;;3.80;99.90;;;;;;8419151;28;19924;-72
2023/12/02 14:28:50;;;;;;;;;;;3.90;99.90;;;;;;8419722;28;20410;-71
2023/12/02 14:32:55;;;;;;;;;;;4.00;99.90;;;;;;8419652;28;19931;-72
2023/12/02 14:36:57;;;;;;;;;;;4.10;99.90;;;;;;8400244;28;19930;-72
2023/12/02 14:41:12;;;;;;;;;;;4.10;99.90;;;;;;8416110;28;19985;-71
2023/12/02 14:45:15;;;;;;;;;;;4.10;99.90;;;;;;8399664;28;19928;-72
2023/12/02 14:49:19;;;;;;;;;;;4.10;99.90;;;;;;8412587;28;20280;-72
2023/12/02 14:53:21;;;;;;;;;;;3.90;99.90;;;;;;8424035;28;19932;-71
2023/12/02 14:57:25;;;;;;;;;;;3.70;99.90;;;;;;8412968;28;19928;-71
2023/12/02 15:01:30;;;;;;;;;;;3.60;99.90;;;;;;8421078;28;19971;-72
2023/12/02 15:05:32;;;;;;;;;;;3.50;99.90;;;;;;8431161;28;19940;-72
2023/12/02 15:09:34;;;;;;;;;;;3.40;99.90;;;;;;8419166;28;19924;-71
2023/12/02 15:13:36;;;;;;;;;;;3.40;99.90;;;;;;8432450;28;20294;-71
2023/12/02 15:17:38;;;;;;;;;;;3.20;99.90;;;;;;8404890;28;19925;-72
2023/12/02 15:21:58;;;;;;;;;;;3.10;99.90;;;;;;8419235;28;19973;-71
2023/12/02 15:26:00;;;;;;;;;;;3.00;99.90;;;;;;8414782;28;19933;-71
2023/12/02 15:30:02;;;;;;;;;;;3.00;99.90;;;;;;8399067;28;19943;-72
2023/12/02 15:34:05;;;;;;;;;;;2.90;99.90;;;;;;8415057;28;19924;-71
2023/12/02 15:38:07;;;;;;;;;;;2.90;99.90;;;;;;8411554;28;19924;-72
2023/12/02 15:42:09;;;;;;;;;;;2.90;99.90;;;;;;8417015;28;19932;-72
2023/12/02 15:46:11;;;;;;;;;;;2.90;99.90;;;;;;8401345;28;19985;-71
2023/12/02 15:50:12;;;;;;;;;;;2.80;99.90;;;;;;8409103;28;20300;-72
2023/12/02 15:54:18;;;;;;;;;;;2.80;99.90;;;;;;8410322;28;20299;-72
2023/12/02 15:58:23;;;;;;;;;;;2.80;99.90;;;;;;8408501;28;19924;-72
2023/12/02 16:02:24;;;;;;;;;;;2.80;99.90;;;;;;8406751;28;19924;-72
2023/12/02 16:06:29;;;;;;;;;;;2.70;99.90;;;;;;8418899;28;19996;-72
2023/12/02 16:10:32;;;;;;;;;;;2.70;99.90;;;;;;8410839;28;20353;-72
2023/12/02 16:14:34;;;;;;;;;;;2.70;99.90;;;;;;8420621;28;19954;-72
2023/12/02 16:18:37;;;;;;;;;;;2.70;99.90;;;;;;8411880;28;19932;-72
2023/12/02 16:22:39;;;;;;;;;;;2.70;99.90;;;;;;8420104;28;19932;-72
2023/12/02 16:26:41;;;;;;;;;;;2.60;99.90;;;;;;8419053;28;20272;-72
2023/12/02 16:30:43;;;;;;;;;;;2.60;99.90;;;;;;8416423;28;20355;-72
2023/12/02 16:34:45;;;;;;;;;;;2.60;99.90;;;;;;8416355;28;19924;-72
2023/12/02 16:38:50;;;;;;;;;;;2.60;99.90;;;;;;8415766;28;19928;-72
2023/12/02 16:42:51;;;;;;;;;;;2.60;99.90;;;;;;8395289;28;19928;-72
2023/12/02 16:46:53;;;;;;;;;;;2.60;99.90;;;;;;8392642;28;19932;-72
2023/12/02 16:50:55;;;;;;;;;;;2.60;99.90;;;;;;8394884;28;20446;-72
2023/12/02 16:54:57;;;;;;;;;;;2.60;99.90;;;;;;8396194;28;20364;-72
2023/12/02 16:58:59;;;;;;;;;;;2.50;99.90;;;;;;8394559;28;20399;-72
2023/12/02 17:03:01;;;;;;;;;;;2.50;99.90;;;;;;8395712;28;19929;-72
2023/12/02 17:07:02;;;;;;;;;;;2.50;99.90;;;;;;8399617;28;19967;-71
2023/12/02 17:11:05;;;;;;;;;;;2.50;99.90;;;;;;8394406;28;20007;-73
2023/12/02 17:15:25;;;;;;;;;;;2.60;99.90;;;;;;8397574;28;20019;-72
2023/12/02 17:19:30;;;;;;;;;;;2.50;99.90;;;;;;8393439;28;19924;-72
2023/12/02 17:23:32;;;;;;;;;;;2.60;99.90;;;;;;8396389;28;20249;-72
2023/12/02 17:27:39;;;;;;;;;;;2.60;99.90;;;;;;8395544;28;19932;-72
2023/12/02 17:31:41;;;;;;;;;;;2.60;99.90;;;;;;8399560;28;19931;-73
2023/12/02 17:35:42;;;;;;;;;;;2.60;99.90;;;;;;8396266;28;19954;-72
2023/12/02 17:39:44;;;;;;;;;;;2.60;99.90;;;;;;8394923;28;19976;-72
2023/12/02 17:43:46;;;;;;;;;;;2.60;99.90;;;;;;8390661;28;20597;-72
2023/12/02 17:47:47;;;;;;;;;;;2.60;99.90;;;;;;8389986;28;19958;-72
2023/12/02 17:51:49;;;;;;;;;;;2.60;99.90;;;;;;8390229;28;19928;-72
2023/12/02 17:55:51;;;;;;;;;;;2.50;99.90;;;;;;8381027;28;19978;-73
2023/12/02 17:59:53;;;;;;;;;;;2.50;99.90;;;;;;8383659;28;19935;-73
2023/12/02 18:03:54;;;;;;;;;;;2.50;99.90;;;;;;8394321;28;20434;-73
2023/12/02 18:07:56;;;;;;;;;;;2.50;99.90;;;;;;8389344;28;19928;-72
2023/12/02 18:11:57;;;;;;;;;;;2.50;99.90;;;;;;8388990;28;19975;-72
2023/12/02 18:15:59;;;;;;;;;;;2.50;99.90;;;;;;8370512;28;19964;-72
2023/12/02 18:20:01;;;;;;;;;;;2.50;99.90;;;;;;8380488;28;20375;-72
2023/12/02 18:24:03;;;;;;;;;;;2.50;99.90;;;;;;8376131;28;20377;-72
2023/12/02 18:28:05;;;;;;;;;;;2.50;99.90;;;;;;8379108;28;20391;-73
2023/12/02 18:32:07;;;;;;;;;;;2.50;99.90;;;;;;8383249;28;19979;-72
2023/12/02 18:36:09;;;;;;;;;;;2.50;99.90;;;;;;8396396;28;19924;-73
2023/12/02 18:40:11;;;;;;;;;;;2.50;99.90;;;;;;8391906;28;20296;-72
2023/12/02 18:44:13;;;;;;;;;;;2.40;99.90;;;;;;8398225;28;19990;-73
2023/12/02 18:48:14;;;;;;;;;;;2.50;99.90;;;;;;8388107;28;19929;-72
2023/12/02 18:52:16;;;;;;;;;;;2.40;99.90;;;;;;8391647;28;19961;-72
2023/12/02 18:56:18;;;;;;;;;;;2.40;99.90;;;;;;8404022;28;19982;-72
2023/12/02 19:00:19;;;;;;;;;;;2.30;99.90;;;;;;8395041;28;19965;-72
2023/12/02 19:04:21;;;;;;;;;;;2.40;99.90;;;;;;8393764;28;19924;-73
2023/12/02 19:08:23;;;;;;;;;;;2.40;99.90;;;;;;8393675;28;20341;-72
2023/12/02 19:12:25;;;;;;;;;;;2.30;99.90;;;;;;8389254;28;19924;-72
2023/12/02 19:16:26;;;;;;;;;;;2.30;99.90;;;;;;8389760;28;20371;-73
2023/12/02 19:20:28;;;;;;;;;;;2.20;99.90;;;;;;8393450;28;19924;-72
2023/12/02 19:24:30;;;;;;;;;;;2.20;99.90;;;;;;8390159;28;19924;-71
2023/12/02 19:28:32;;;;;;;;;;;2.20;99.90;;;;;;8392323;28;19932;-73
2023/12/02 19:32:34;;;;;;;;;;;2.20;99.90;;;;;;8387855;28;19939;-73
2023/12/02 19:36:36;;;;;;;;;;;2.20;99.90;;;;;;8394149;28;19979;-73
2023/12/02 19:40:39;;;;;;;;;;;2.20;99.90;;;;;;8388762;28;19924;-72
2023/12/02 19:44:40;;;;;;;;;;;2.20;99.90;;;;;;8390660;28;20384;-72
2023/12/02 19:48:42;;;;;;;;;;;2.20;99.90;;;;;;8397495;28;20303;-72
2023/12/02 19:52:44;;;;;;;;;;;2.20;99.90;;;;;;8389254;28;19933;-72
2023/12/02 19:56:49;;;;;;;;;;;2.20;99.90;;;;;;8391441;28;19924;-73
2023/12/02 20:00:52;;;;;;;;;;;2.10;99.90;;;;;;8394307;28;20387;-72
2023/12/02 20:04:53;;;;;;;;;;;2.00;99.90;;;;;;8391388;28;19935;-72
2023/12/02 20:08:55;;;;;;;;;;;2.00;99.90;;;;;;8393185;28;19935;-72
2023/12/02 20:12:57;;;;;;;;;;;2.00;99.90;;;;;;8397028;28;20342;-72
2023/12/02 20:16:58;;;;;;;;;;;2.00;99.90;;;;;;8397001;28;20022;-73
2023/12/02 20:21:00;;;;;;;;;;;2.00;99.90;;;;;;8398127;28;19928;-72
2023/12/02 20:25:03;;;;;;;;;;;2.00;99.90;;;;;;8397057;28;20273;-72
2023/12/02 20:29:05;;;;;;;;;;;2.00;99.90;;;;;;8398817;28;20322;-72
2023/12/02 20:33:07;;;;;;;;;;;2.00;99.90;;;;;;8396616;28;19924;-72
2023/12/02 20:37:11;;;;;;;;;;;2.10;99.90;;;;;;8398616;28;19978;-72
2023/12/02 20:41:13;;;;;;;;;;;2.10;99.90;;;;;;8400984;28;19929;-72
2023/12/02 20:45:14;;;;;;;;;;;2.10;99.90;;;;;;8401915;28;19924;-72
2023/12/02 20:49:16;;;;;;;;;;;2.10;99.90;;;;;;8398091;28;19938;-72
2023/12/02 20:53:18;;;;;;;;;;;2.10;99.90;;;;;;8395587;28;19962;-72
2023/12/02 20:57:19;;;;;;;;;;;2.10;99.90;;;;;;8397473;28;20391;-72
2023/12/02 21:01:21;;;;;;;;;;;2.10;99.90;;;;;;8397219;28;20380;-72
2023/12/02 21:05:23;;;;;;;;;;;2.10;99.90;;;;;;8394072;28;19932;-72
2023/12/02 21:09:24;;;;;;;;;;;2.10;99.90;;;;;;8393721;28;20023;-72
2023/12/02 21:13:26;;;;;;;;;;;2.10;99.90;;;;;;8408896;28;20583;-72
2023/12/02 21:17:28;;;;;;;;;;;2.10;99.90;;;;;;8398657;28;20318;-72
2023/12/02 21:21:29;;;;;;;;;;;2.20;99.90;;;;;;8394747;28;20302;-72
2023/12/02 21:25:33;;;;;;;;;;;2.20;99.90;;;;;;8393512;28;19952;-72
2023/12/02 21:29:34;;;;;;;;;;;2.20;99.90;;;;;;8393151;28;19935;-72
2023/12/02 21:33:36;;;;;;;;;;;2.20;99.90;;;;;;8395026;28;19925;-72
2023/12/02 21:37:38;;;;;;;;;;;2.20;99.90;;;;;;8393718;28;20384;-72
2023/12/02 21:41:40;;;;;;;;;;;2.30;99.90;;;;;;8392811;28;20284;-72
2023/12/02 21:45:44;;;;;;;;;;;2.30;99.90;;;;;;8393866;28;20426;-72
2023/12/02 21:49:47;;;;;;;;;;;2.30;99.90;;;;;;8394997;28;19929;-72
2023/12/02 21:53:55;;;;;;;;;;;2.30;99.90;;;;;;8391926;28;20015;-73
2023/12/02 21:57:57;;;;;;;;;;;2.30;99.90;;;;;;8396368;28;19956;-72
2023/12/02 22:12:07;;;;;;;;;;;2.30;99.90;;;;;;8428706;28;20017;-72
2023/12/02 22:16:09;;;;;;;;;;;2.30;99.90;;;;;;8414636;28;19975;-72
2023/12/02 22:20:14;;;;;;;;;;;2.20;99.90;;;;;;8415567;28;20418;-72
2023/12/02 22:24:16;;;;;;;;;;;2.20;99.90;;;;;;8428032;28;19973;-72
2023/12/02 22:28:18;;;;;;;;;;;2.20;99.90;;;;;;8429510;28;19938;-72
2023/12/02 22:32:26;;;;;;;;;;;2.20;99.90;;;;;;8425810;28;19924;-72
2023/12/02 22:36:27;;;;;;;;;;;2.20;99.90;;;;;;8422297;28;19924;-72
2023/12/02 22:40:33;;;;;;;;;;;2.20;99.90;;;;;;8424511;28;19932;-73
2023/12/02 22:44:35;;;;;;;;;;;2.20;99.90;;;;;;8418922;28;20068;-72
2023/12/02 22:48:39;;;;;;;;;;;2.30;99.90;;;;;;8419760;28;19924;-73
2023/12/02 22:52:42;;;;;;;;;;;2.20;99.90;;;;;;8428250;28;20447;-72
2023/12/02 22:56:43;;;;;;;;;;;2.20;99.90;;;;;;8431563;28;19965;-72
2023/12/02 23:00:47;;;;;;;;;;;2.20;99.90;;;;;;8429090;28;19964;-72
2023/12/02 23:04:49;;;;;;;;;;;2.20;99.90;;;;;;8420738;28;20440;-72
2023/12/02 23:08:51;;;;;;;;;;;2.20;99.90;;;;;;8413148;28;19978;-72
2023/12/02 23:12:56;;;;;;;;;;;2.10;99.90;;;;;;8418079;28;19924;-72
2023/12/02 23:16:57;;;;;;;;;;;2.10;99.90;;;;;;8412148;28;20198;-71
2023/12/02 23:21:00;;;;;;;;;;;2.10;99.90;;;;;;8426695;28;19932;-72
2023/12/02 23:25:04;;;;;;;;;;;2.10;99.90;;;;;;8429787;28;19931;-72
2023/12/02 23:29:06;;;;;;;;;;;2.10;99.90;;;;;;8426377;28;19924;-72
2023/12/02 23:33:09;;;;;;;;;;;2.10;99.90;;;;;;8423588;28;19950;-72
2023/12/02 23:37:15;;;;;;;;;;;2.10;99.90;;;;;;8429528;28;19928;-72
2023/12/02 23:41:17;;;;;;;;;;;2.10;99.90;;;;;;8431716;28;19924;-73
2023/12/02 23:45:19;;;;;;;;;;;2.10;99.90;;;;;;8425375;28;20038;-72
2023/12/02 23:49:20;;;;;;;;;;;2.00;99.90;;;;;;8432089;28;19928;-72
2023/12/02 23:53:22;;;;;;;;;;;2.00;99.90;;;;;;8432316;28;19935;-73
2023/12/02 23:57:24;;;;;;;;;;;2.00;99.90;;;;;;8440531;28;19959;-72
